sensor_id;sensor_type;location;lat;lon;timestamp;pressure;altitude;pressure_sealevel;temperature;humidity
75208;BME280;63795;55.684;37.864;2023-05-09T00:02:22;101363.50;;;4.76;43.74
75208;BME280;63795;55.684;37.864;2023-05-09T00:07:22;101370.94;;;4.72;43.64
75208;BME280;63795;55.684;37.864;2023-05-09T00:12:23;101369.13;;;4.68;44.42
75208;BME280;63795;55.684;37.864;2023-05-09T00:17:23;101378.53;;;4.63;44.11
75208;BME280;63795;55.684;37.864;2023-05-09T00:22:24;101360.38;;;4.52;43.82
75208;BME280;63795;55.684;37.864;2023-05-09T00:27:24;101376.38;;;4.52;44.15
75208;BME280;63795;55.684;37.864;2023-05-09T00:32:25;101368.94;;;4.47;44.74
75208;BME280;63795;55.684;37.864;2023-05-09T00:37:29;101367.13;;;4.43;44.30
75208;BME280;63795;55.684;37.864;2023-05-09T00:42:30;101356.72;;;4.26;44.61
75208;BME280;63795;55.684;37.864;2023-05-09T00:47:32;101359.19;;;4.27;45.22
75208;BME280;63795;55.684;37.864;2023-05-09T00:52:33;101367.25;;;4.29;44.99
75208;BME280;63795;55.684;37.864;2023-05-09T00:57:34;101377.19;;;4.26;45.64
75208;BME280;63795;55.684;37.864;2023-05-09T01:02:35;101370.56;;;4.22;45.02
75208;BME280;63795;55.684;37.864;2023-05-09T01:18:29;101382.59;;;4.06;46.47
75208;BME280;63795;55.684;37.864;2023-05-09T01:34:14;101369.69;;;3.96;46.23
75208;BME280;63795;55.684;37.864;2023-05-09T01:39:16;101376.78;;;3.94;46.00
75208;BME280;63795;55.684;37.864;2023-05-09T01:44:19;101386.31;;;3.93;46.50
75208;BME280;63795;55.684;37.864;2023-05-09T01:49:21;101387.31;;;3.88;46.17
75208;BME280;63795;55.684;37.864;2023-05-09T01:54:22;101378.91;;;3.88;46.80
75208;BME280;63795;55.684;37.864;2023-05-09T01:59:27;101393.44;;;3.90;49.84
75208;BME280;63795;55.684;37.864;2023-05-09T02:04:29;101386.31;;;3.93;46.87
75208;BME280;63795;55.684;37.864;2023-05-09T02:09:30;101386.53;;;3.96;46.92
75208;BME280;63795;55.684;37.864;2023-05-09T02:14:30;101384.22;;;3.98;47.06
75208;BME280;63795;55.684;37.864;2023-05-09T02:19:34;101393.31;;;4.04;47.67
75208;BME280;63795;55.684;37.864;2023-05-09T02:24:35;101387.31;;;3.97;53.78
75208;BME280;63795;55.684;37.864;2023-05-09T02:29:40;101392.31;;;4.00;48.49
75208;BME280;63795;55.684;37.864;2023-05-09T02:34:44;101387.22;;;4.10;48.00
75208;BME280;63795;55.684;37.864;2023-05-09T02:39:45;101382.09;;;4.21;48.17
75208;BME280;63795;55.684;37.864;2023-05-09T02:44:46;101384.94;;;4.29;47.56
75208;BME280;63795;55.684;37.864;2023-05-09T02:49:47;101388.59;;;4.39;47.72
75208;BME280;63795;55.684;37.864;2023-05-09T02:54:47;101392.22;;;4.48;47.47
75208;BME280;63795;55.684;37.864;2023-05-09T02:59:48;101395.88;;;4.57;47.42
75208;BME280;63795;55.684;37.864;2023-05-09T03:04:48;101393.91;;;4.66;47.31
75208;BME280;63795;55.684;37.864;2023-05-09T03:09:49;101395.72;;;4.79;47.54
75208;BME280;63795;55.684;37.864;2023-05-09T03:14:50;101396.69;;;4.91;48.88
75208;BME280;63795;55.684;37.864;2023-05-09T03:19:50;101393.72;;;4.96;48.33
75208;BME280;63795;55.684;37.864;2023-05-09T03:24:50;101401.63;;;5.11;48.59
75208;BME280;63795;55.684;37.864;2023-05-09T03:29:51;101403.13;;;5.26;47.56
75208;BME280;63795;55.684;37.864;2023-05-09T03:34:51;101402.25;;;5.43;47.85
75208;BME280;63795;55.684;37.864;2023-05-09T03:39:52;101407.16;;;5.63;47.32
75208;BME280;63795;55.684;37.864;2023-05-09T03:44:52;101410.91;;;5.75;48.11
75208;BME280;63795;55.684;37.864;2023-05-09T03:49:54;101409.22;;;5.91;48.85
75208;BME280;63795;55.684;37.864;2023-05-09T03:54:54;101412.63;;;6.06;47.02
75208;BME280;63795;55.684;37.864;2023-05-09T03:59:54;101414.88;;;6.21;47.08
75208;BME280;63795;55.684;37.864;2023-05-09T04:04:55;101420.09;;;6.39;46.45
75208;BME280;63795;55.684;37.864;2023-05-09T04:09:55;101425.25;;;6.58;46.10
75208;BME280;63795;55.684;37.864;2023-05-09T04:14:56;101426.78;;;6.76;45.76
75208;BME280;63795;55.684;37.864;2023-05-09T04:19:56;101429.47;;;6.93;45.85
75208;BME280;63795;55.684;37.864;2023-05-09T04:24:57;101421.69;;;7.11;45.45
75208;BME280;63795;55.684;37.864;2023-05-09T04:29:57;101425.16;;;7.28;45.53
75208;BME280;63795;55.684;37.864;2023-05-09T04:34:57;101422.25;;;7.37;45.29
75208;BME280;63795;55.684;37.864;2023-05-09T04:39:58;101427.03;;;7.57;45.26
75208;BME280;63795;55.684;37.864;2023-05-09T04:44:59;101428.38;;;7.71;45.10
75208;BME280;63795;55.684;37.864;2023-05-09T04:49:59;101431.56;;;7.94;44.76
75208;BME280;63795;55.684;37.864;2023-05-09T04:55:00;101430.75;;;8.18;44.36
75208;BME280;63795;55.684;37.864;2023-05-09T05:00:01;101425.38;;;8.37;42.69
75208;BME280;63795;55.684;37.864;2023-05-09T05:05:01;101432.44;;;8.55;41.89
75208;BME280;63795;55.684;37.864;2023-05-09T05:10:02;101434.41;;;8.79;41.80
75208;BME280;63795;55.684;37.864;2023-05-09T05:15:02;101432.59;;;8.98;42.09
75208;BME280;63795;55.684;37.864;2023-05-09T05:20:03;101416.03;;;9.12;41.94
75208;BME280;63795;55.684;37.864;2023-05-09T05:25:06;101425.81;;;9.42;39.92
75208;BME280;63795;55.684;37.864;2023-05-09T05:30:07;101425.97;;;9.62;36.99
75208;BME280;63795;55.684;37.864;2023-05-09T05:35:08;101424.34;;;9.76;37.95
75208;BME280;63795;55.684;37.864;2023-05-09T05:40:10;101422.25;;;9.89;35.62
75208;BME280;63795;55.684;37.864;2023-05-09T05:45:11;101416.03;;;9.99;37.52
75208;BME280;63795;55.684;37.864;2023-05-09T05:50:11;101413.88;;;10.23;35.84
75208;BME280;63795;55.684;37.864;2023-05-09T05:55:12;101420.25;;;10.36;36.74
75208;BME280;63795;55.684;37.864;2023-05-09T06:00:13;101418.00;;;10.42;34.74
75208;BME280;63795;55.684;37.864;2023-05-09T06:05:14;101424.81;;;10.56;33.82
75208;BME280;63795;55.684;37.864;2023-05-09T06:10:14;101415.84;;;10.70;32.17
75208;BME280;63795;55.684;37.864;2023-05-09T06:15:17;101404.56;;;10.92;31.53
75208;BME280;63795;55.684;37.864;2023-05-09T06:20:18;101413.66;;;11.36;31.96
75208;BME280;63795;55.684;37.864;2023-05-09T06:25:18;101407.56;;;12.44;32.46
75208;BME280;63795;55.684;37.864;2023-05-09T06:30:19;101403.56;;;13.67;33.09
75208;BME280;63795;55.684;37.864;2023-05-09T06:35:19;101393.84;;;14.59;30.46
75208;BME280;63795;55.684;37.864;2023-05-09T06:40:20;101396.28;;;15.22;31.06
75208;BME280;63795;55.684;37.864;2023-05-09T06:45:20;101399.75;;;14.87;28.25
75208;BME280;63795;55.684;37.864;2023-05-09T06:50:21;101378.16;;;14.32;27.97
75208;BME280;63795;55.684;37.864;2023-05-09T06:55:21;101389.81;;;14.64;27.21
75208;BME280;63795;55.684;37.864;2023-05-09T07:00:22;101386.63;;;14.76;28.85
75208;BME280;63795;55.684;37.864;2023-05-09T07:05:23;101384.84;;;15.15;27.09
75208;BME280;63795;55.684;37.864;2023-05-09T07:10:23;101379.31;;;15.68;26.57
75208;BME280;63795;55.684;37.864;2023-05-09T07:15:24;101374.09;;;14.91;26.55
75208;BME280;63795;55.684;37.864;2023-05-09T07:20:24;101379.91;;;13.63;27.61
75208;BME280;63795;55.684;37.864;2023-05-09T07:25:25;101362.78;;;12.97;27.77
75208;BME280;63795;55.684;37.864;2023-05-09T07:30:25;101364.72;;;12.59;27.41
75208;BME280;63795;55.684;37.864;2023-05-09T07:35:26;101369.69;;;12.40;28.20
75208;BME280;63795;55.684;37.864;2023-05-09T07:40:26;101362.41;;;12.16;27.39
75208;BME280;63795;55.684;37.864;2023-05-09T07:45:26;101358.72;;;12.38;26.69
75208;BME280;63795;55.684;37.864;2023-05-09T07:50:27;101349.69;;;13.55;27.84
75208;BME280;63795;55.684;37.864;2023-05-09T07:55:28;101334.91;;;14.26;27.19
75208;BME280;63795;55.684;37.864;2023-05-09T08:00:29;101344.53;;;14.11;27.18
75208;BME280;63795;55.684;37.864;2023-05-09T08:05:29;101344.19;;;14.16;27.68
75208;BME280;63795;55.684;37.864;2023-05-09T08:10:30;101330.47;;;13.85;26.01
75208;BME280;63795;55.684;37.864;2023-05-09T08:15:31;101317.97;;;13.97;26.92
75208;BME280;63795;55.684;37.864;2023-05-09T08:20:31;101314.13;;;14.91;24.92
75208;BME280;63795;55.684;37.864;2023-05-09T08:25:33;101317.56;;;15.35;24.71
75208;BME280;63795;55.684;37.864;2023-05-09T08:30:34;101318.84;;;15.55;24.41
75208;BME280;63795;55.684;37.864;2023-05-09T08:35:34;101309.50;;;16.39;23.49
75208;BME280;63795;55.684;37.864;2023-05-09T08:40:35;101309.91;;;16.06;25.34
75208;BME280;63795;55.684;37.864;2023-05-09T08:45:50;101291.34;;;15.05;23.96
75208;BME280;63795;55.684;37.864;2023-05-09T08:50:51;101292.00;;;14.70;25.57
75208;BME280;63795;55.684;37.864;2023-05-09T08:55:52;101295.88;;;14.37;25.20
75208;BME280;63795;55.684;37.864;2023-05-09T09:00:53;101285.50;;;14.15;26.42
75208;BME280;63795;55.684;37.864;2023-05-09T09:05:57;101283.25;;;14.38;26.30
75208;BME280;63795;55.684;37.864;2023-05-09T09:10:58;101281.34;;;14.64;26.13
75208;BME280;63795;55.684;37.864;2023-05-09T09:16:00;101277.22;;;16.10;25.01
75208;BME280;63795;55.684;37.864;2023-05-09T09:21:09;101266.13;;;16.55;21.47
75208;BME280;63795;55.684;37.864;2023-05-09T09:26:11;101262.09;;;17.32;23.94
75208;BME280;63795;55.684;37.864;2023-05-09T09:31:22;101254.66;;;18.44;20.25
75208;BME280;63795;55.684;37.864;2023-05-09T09:36:27;101250.22;;;18.73;20.60
75208;BME280;63795;55.684;37.864;2023-05-09T09:41:36;101247.97;;;18.54;20.53
75208;BME280;63795;55.684;37.864;2023-05-09T09:46:43;101244.16;;;18.64;21.66
75208;BME280;63795;55.684;37.864;2023-05-09T09:51:48;101239.78;;;18.86;21.68
75208;BME280;63795;55.684;37.864;2023-05-09T09:56:50;101225.47;;;18.49;19.21
75208;BME280;63795;55.684;37.864;2023-05-09T10:02:01;101228.13;;;17.30;20.89
75208;BME280;63795;55.684;37.864;2023-05-09T10:07:04;101231.09;;;17.74;18.95
75208;BME280;63795;55.684;37.864;2023-05-09T10:12:17;101222.59;;;16.95;19.49
75208;BME280;63795;55.684;37.864;2023-05-09T10:17:20;101228.56;;;16.17;21.44
75208;BME280;63795;55.684;37.864;2023-05-09T10:22:22;101231.84;;;16.02;20.78
75208;BME280;63795;55.684;37.864;2023-05-09T10:27:26;101226.16;;;15.42;21.88
75208;BME280;63795;55.684;37.864;2023-05-09T10:32:30;101228.22;;;15.45;22.18
75208;BME280;63795;55.684;37.864;2023-05-09T10:37:32;101212.22;;;15.23;22.05
75208;BME280;63795;55.684;37.864;2023-05-09T10:42:33;101212.16;;;14.95;22.59
75208;BME280;63795;55.684;37.864;2023-05-09T10:47:35;101204.03;;;15.18;22.56
75208;BME280;63795;55.684;37.864;2023-05-09T10:58:21;101190.63;;;17.00;21.99
75208;BME280;63795;55.684;37.864;2023-05-09T11:03:24;101190.28;;;18.01;22.41
75208;BME280;63795;55.684;37.864;2023-05-09T11:08:25;101182.44;;;18.05;20.11
75208;BME280;63795;55.684;37.864;2023-05-09T11:13:30;101175.91;;;17.60;19.93
75208;BME280;63795;55.684;37.864;2023-05-09T11:18:31;101174.22;;;17.11;20.99
75208;BME280;63795;55.684;37.864;2023-05-09T11:23:32;101161.78;;;17.28;20.60
75208;BME280;63795;55.684;37.864;2023-05-09T11:28:36;101160.38;;;17.57;21.00
75208;BME280;63795;55.684;37.864;2023-05-09T11:33:41;101153.94;;;18.58;19.63
75208;BME280;63795;55.684;37.864;2023-05-09T11:38:43;101151.38;;;19.24;19.44
75208;BME280;63795;55.684;37.864;2023-05-09T11:43:44;101139.22;;;18.56;18.70
75208;BME280;63795;55.684;37.864;2023-05-09T11:48:44;101135.50;;;19.66;20.43
75208;BME280;63795;55.684;37.864;2023-05-09T11:53:50;101112.81;;;20.53;19.26
75208;BME280;63795;55.684;37.864;2023-05-09T11:58:53;101123.50;;;20.72;19.11
75208;BME280;63795;55.684;37.864;2023-05-09T12:03:53;101132.03;;;19.97;17.71
75208;BME280;63795;55.684;37.864;2023-05-09T12:08:54;101127.22;;;19.44;19.46
75208;BME280;63795;55.684;37.864;2023-05-09T12:13:55;101121.13;;;18.59;18.37
75208;BME280;63795;55.684;37.864;2023-05-09T12:18:56;101103.91;;;17.47;18.80
75208;BME280;63795;55.684;37.864;2023-05-09T12:23:56;101108.91;;;16.85;19.88
75208;BME280;63795;55.684;37.864;2023-05-09T12:28:57;101098.03;;;16.52;20.15
75208;BME280;63795;55.684;37.864;2023-05-09T12:33:58;101102.44;;;16.70;20.24
75208;BME280;63795;55.684;37.864;2023-05-09T12:38:58;101096.44;;;17.06;20.36
75208;BME280;63795;55.684;37.864;2023-05-09T12:43:59;101084.00;;;17.26;21.06
75208;BME280;63795;55.684;37.864;2023-05-09T12:49:00;101077.78;;;17.35;20.72
75208;BME280;63795;55.684;37.864;2023-05-09T12:54:04;101077.66;;;18.57;18.94
75208;BME280;63795;55.684;37.864;2023-05-09T12:59:09;101061.91;;;19.18;19.61
75208;BME280;63795;55.684;37.864;2023-05-09T13:04:10;101043.91;;;19.61;19.33
75208;BME280;63795;55.684;37.864;2023-05-09T13:09:10;101057.13;;;19.58;18.63
75208;BME280;63795;55.684;37.864;2023-05-09T13:14:12;101041.78;;;20.27;19.18
75208;BME280;63795;55.684;37.864;2023-05-09T13:19:13;101035.91;;;20.50;19.33
75208;BME280;63795;55.684;37.864;2023-05-09T13:24:14;101045.25;;;19.33;17.99
75208;BME280;63795;55.684;37.864;2023-05-09T13:29:14;101026.72;;;17.67;18.81
75208;BME280;63795;55.684;37.864;2023-05-09T13:34:15;101025.53;;;16.69;19.65
75208;BME280;63795;55.684;37.864;2023-05-09T13:39:15;101015.53;;;16.33;20.89
75208;BME280;63795;55.684;37.864;2023-05-09T13:44:16;101009.97;;;16.04;20.76
75208;BME280;63795;55.684;37.864;2023-05-09T13:49:16;101011.03;;;16.28;20.95
75208;BME280;63795;55.684;37.864;2023-05-09T13:54:17;101003.75;;;16.16;21.20
75208;BME280;63795;55.684;37.864;2023-05-09T13:59:18;101004.38;;;15.69;22.17
75208;BME280;63795;55.684;37.864;2023-05-09T14:04:19;101000.31;;;15.63;21.67
75208;BME280;63795;55.684;37.864;2023-05-09T14:09:20;100999.91;;;15.68;21.89
75208;BME280;63795;55.684;37.864;2023-05-09T14:14:23;100988.06;;;15.66;20.99
75208;BME280;63795;55.684;37.864;2023-05-09T14:19:25;100978.75;;;15.23;21.43
75208;BME280;63795;55.684;37.864;2023-05-09T14:24:29;100976.34;;;15.04;22.03
75208;BME280;63795;55.684;37.864;2023-05-09T14:29:30;100981.19;;;15.32;22.25
75208;BME280;63795;55.684;37.864;2023-05-09T14:34:31;100980.38;;;15.42;22.11
75208;BME280;63795;55.684;37.864;2023-05-09T14:39:36;100969.78;;;15.25;21.72
75208;BME280;63795;55.684;37.864;2023-05-09T14:44:38;100970.19;;;15.23;22.15
75208;BME280;63795;55.684;37.864;2023-05-09T14:49:38;100964.88;;;15.22;21.92
75208;BME280;63795;55.684;37.864;2023-05-09T14:54:39;100965.28;;;15.24;22.11
75208;BME280;63795;55.684;37.864;2023-05-09T14:59:40;100962.88;;;15.05;21.11
75208;BME280;63795;55.684;37.864;2023-05-09T15:04:40;100966.16;;;14.75;21.54
75208;BME280;63795;55.684;37.864;2023-05-09T15:09:42;100958.44;;;14.83;21.78
75208;BME280;63795;55.684;37.864;2023-05-09T15:14:43;100951.88;;;14.89;22.07
75208;BME280;63795;55.684;37.864;2023-05-09T15:19:43;100932.31;;;14.81;21.79
75208;BME280;63795;55.684;37.864;2023-05-09T15:24:44;100945.78;;;14.70;22.21
75208;BME280;63795;55.684;37.864;2023-05-09T15:29:44;100946.19;;;14.58;22.39
75208;BME280;63795;55.684;37.864;2023-05-09T15:34:45;100939.66;;;14.54;22.54
75208;BME280;63795;55.684;37.864;2023-05-09T15:39:46;100916.84;;;14.39;22.69
75208;BME280;63795;55.684;37.864;2023-05-09T15:44:47;100934.78;;;14.51;23.03
75208;BME280;63795;55.684;37.864;2023-05-09T15:49:47;100929.88;;;14.40;22.54
75208;BME280;63795;55.684;37.864;2023-05-09T15:54:48;100934.75;;;14.29;23.03
75208;BME280;63795;55.684;37.864;2023-05-09T15:59:49;100922.53;;;14.39;23.20
75208;BME280;63795;55.684;37.864;2023-05-09T16:04:49;100920.91;;;14.45;23.28
75208;BME280;63795;55.684;37.864;2023-05-09T16:09:50;100919.28;;;14.44;23.37
75208;BME280;63795;55.684;37.864;2023-05-09T16:14:50;100922.53;;;14.43;23.44
75208;BME280;63795;55.684;37.864;2023-05-09T16:19:51;100911.09;;;14.25;23.52
75208;BME280;63795;55.684;37.864;2023-05-09T16:24:52;100919.22;;;14.23;23.50
75208;BME280;63795;55.684;37.864;2023-05-09T16:29:52;100904.16;;;14.19;23.71
75208;BME280;63795;55.684;37.864;2023-05-09T16:34:53;100909.44;;;14.17;23.90
75208;BME280;63795;55.684;37.864;2023-05-09T16:39:53;100900.47;;;13.94;24.20
75208;BME280;63795;55.684;37.864;2023-05-09T16:44:54;100900.84;;;13.82;24.42
75208;BME280;63795;55.684;37.864;2023-05-09T16:49:55;100895.53;;;13.77;24.56
75208;BME280;63795;55.684;37.864;2023-05-09T16:54:55;100905.69;;;13.71;24.41
75208;BME280;63795;55.684;37.864;2023-05-09T16:59:58;100906.50;;;13.68;24.76
75208;BME280;63795;55.684;37.864;2023-05-09T17:04:58;100899.56;;;13.69;24.32
75208;BME280;63795;55.684;37.864;2023-05-09T17:09:59;100897.50;;;13.59;24.68
75208;BME280;63795;55.684;37.864;2023-05-09T17:14:59;100894.59;;;13.41;25.35
75208;BME280;63795;55.684;37.864;2023-05-09T17:20:00;100903.91;;;13.24;25.44
75208;BME280;63795;55.684;37.864;2023-05-09T17:25:01;100907.09;;;13.16;25.66
75208;BME280;63795;55.684;37.864;2023-05-09T17:30:02;100909.47;;;13.07;25.72
75208;BME280;63795;55.684;37.864;2023-05-09T17:35:03;100908.16;;;12.90;25.92
75208;BME280;63795;55.684;37.864;2023-05-09T17:40:05;100910.91;;;12.79;28.08
75208;BME280;63795;55.684;37.864;2023-05-09T17:45:06;100909.13;;;12.57;27.39
75208;BME280;63795;55.684;37.864;2023-05-09T17:50:07;100912.69;;;12.44;26.50
75208;BME280;63795;55.684;37.864;2023-05-09T17:55:18;100911.84;;;12.43;26.94
75208;BME280;63795;55.684;37.864;2023-05-09T18:00:19;100911.84;;;12.43;26.71
75208;BME280;63795;55.684;37.864;2023-05-09T18:05:20;100911.84;;;12.43;26.78
75208;BME280;63795;55.684;37.864;2023-05-09T18:10:21;100907.81;;;12.44;27.19
75208;BME280;63795;55.684;37.864;2023-05-09T18:15:23;100917.53;;;12.43;27.15
75208;BME280;63795;55.684;37.864;2023-05-09T18:20:23;100907.41;;;12.42;27.34
75208;BME280;63795;55.684;37.864;2023-05-09T18:25:24;100897.63;;;12.43;26.78
75208;BME280;63795;55.684;37.864;2023-05-09T18:30:25;100903.75;;;12.45;27.06
75208;BME280;63795;55.684;37.864;2023-05-09T18:35:26;100900.56;;;12.50;26.93
75208;BME280;63795;55.684;37.864;2023-05-09T18:40:27;100910.34;;;12.56;27.06
75208;BME280;63795;55.684;37.864;2023-05-09T18:45:27;100907.47;;;12.53;27.14
75208;BME280;63795;55.684;37.864;2023-05-09T18:50:29;100901.75;;;12.49;27.12
75208;BME280;63795;55.684;37.864;2023-05-09T18:55:29;100906.63;;;12.49;27.02
75208;BME280;63795;55.684;37.864;2023-05-09T19:00:30;100903.75;;;12.45;27.21
75208;BME280;63795;55.684;37.864;2023-05-09T19:05:30;100901.28;;;12.40;27.12
75208;BME280;63795;55.684;37.864;2023-05-09T19:10:31;100910.97;;;12.32;27.01
75208;BME280;63795;55.684;37.864;2023-05-09T19:15:32;100905.63;;;12.27;27.06
75208;BME280;63795;55.684;37.864;2023-05-09T19:20:33;100914.13;;;12.24;26.96
75208;BME280;63795;55.684;37.864;2023-05-09T19:25:34;100918.94;;;12.16;27.36
75208;BME280;63795;55.684;37.864;2023-05-09T19:30:36;100909.06;;;12.03;27.44
75208;BME280;63795;55.684;37.864;2023-05-09T19:35:37;100910.59;;;11.93;27.65
75208;BME280;63795;55.684;37.864;2023-05-09T19:40:38;100897.13;;;11.87;27.77
75208;BME280;63795;55.684;37.864;2023-05-09T19:45:40;100899.53;;;11.85;27.88
75208;BME280;63795;55.684;37.864;2023-05-09T19:50:42;100890.59;;;11.83;27.69
75208;BME280;63795;55.684;37.864;2023-05-09T19:55:43;100901.22;;;11.89;27.78
75208;BME280;63795;55.684;37.864;2023-05-09T20:00:47;100900.81;;;11.91;27.81
75208;BME280;63795;55.684;37.864;2023-05-09T20:05:50;100886.19;;;11.89;27.99
75208;BME280;63795;55.684;37.864;2023-05-09T20:10:51;100900.91;;;11.98;27.82
75208;BME280;63795;55.684;37.864;2023-05-09T20:15:52;100892.31;;;11.94;28.20
75208;BME280;63795;55.684;37.864;2023-05-09T20:20:52;100886.59;;;11.91;28.11
75208;BME280;63795;55.684;37.864;2023-05-09T20:25:54;100882.09;;;11.86;28.18
75208;BME280;63795;55.684;37.864;2023-05-09T20:30:55;100890.16;;;11.81;28.14
75208;BME280;63795;55.684;37.864;2023-05-09T20:35:55;100891.66;;;11.68;28.68
75208;BME280;63795;55.684;37.864;2023-05-09T20:40:56;100884.94;;;11.53;28.85
75208;BME280;63795;55.684;37.864;2023-05-09T20:45:56;100884.13;;;11.53;28.93
75208;BME280;63795;55.684;37.864;2023-05-09T20:50:57;100881.28;;;11.53;29.02
75208;BME280;63795;55.684;37.864;2023-05-09T20:55:58;100882.47;;;11.48;28.82
75208;BME280;63795;55.684;37.864;2023-05-09T21:01:01;100886.91;;;11.46;28.89
75208;BME280;63795;55.684;37.864;2023-05-09T21:06:01;100877.97;;;11.44;29.13
75208;BME280;63795;55.684;37.864;2023-05-09T21:11:02;100874.25;;;11.40;28.83
75208;BME280;63795;55.684;37.864;2023-05-09T21:16:02;100878.34;;;11.42;29.05
75208;BME280;63795;55.684;37.864;2023-05-09T21:21:06;100885.56;;;11.36;31.47
75208;BME280;63795;55.684;37.864;2023-05-09T21:26:07;100886.13;;;11.16;32.01
75208;BME280;63795;55.684;37.864;2023-05-09T21:31:08;100888.06;;;11.08;31.44
75208;BME280;63795;55.684;37.864;2023-05-09T21:36:08;100881.09;;;11.02;30.46
75208;BME280;63795;55.684;37.864;2023-05-09T21:41:10;100887.56;;;11.02;30.10
75208;BME280;63795;55.684;37.864;2023-05-09T21:46:10;100886.69;;;10.98;30.74
75208;BME280;63795;55.684;37.864;2023-05-09T21:51:11;100875.78;;;11.00;30.81
75208;BME280;63795;55.684;37.864;2023-05-09T21:56:12;100866.06;;;11.01;30.33
75208;BME280;63795;55.684;37.864;2023-05-09T22:01:14;100863.28;;;11.05;30.43
75208;BME280;63795;55.684;37.864;2023-05-09T22:06:14;100862.13;;;11.09;30.38
75208;BME280;63795;55.684;37.864;2023-05-09T22:11:15;100860.13;;;11.10;30.26
75208;BME280;63795;55.684;37.864;2023-05-09T22:16:17;100862.13;;;11.09;30.17
75208;BME280;63795;55.684;37.864;2023-05-09T22:21:17;100859.28;;;11.09;30.31
75208;BME280;63795;55.684;37.864;2023-05-09T22:26:18;100855.16;;;11.03;30.20
75208;BME280;63795;55.684;37.864;2023-05-09T22:31:18;100845.75;;;10.96;31.39
75208;BME280;63795;55.684;37.864;2023-05-09T22:36:19;100833.25;;;10.74;31.64
75208;BME280;63795;55.684;37.864;2023-05-09T22:41:21;100855.91;;;10.71;31.25
75208;BME280;63795;55.684;37.864;2023-05-09T22:46:22;100848.13;;;10.64;31.69
75208;BME280;63795;55.684;37.864;2023-05-09T22:51:22;100850.16;;;10.64;31.42
75208;BME280;63795;55.684;37.864;2023-05-09T22:56:23;100844.84;;;10.62;31.77
75208;BME280;63795;55.684;37.864;2023-05-09T23:01:25;100846.38;;;10.56;31.57
75208;BME280;63795;55.684;37.864;2023-05-09T23:06:26;100849.56;;;10.51;31.95
75208;BME280;63795;55.684;37.864;2023-05-09T23:11:26;100838.91;;;10.45;32.83
75208;BME280;63795;55.684;37.864;2023-05-09T23:16:27;100833.19;;;10.41;32.93
75208;BME280;63795;55.684;37.864;2023-05-09T23:21:27;100837.13;;;10.33;32.71
75208;BME280;63795;55.684;37.864;2023-05-09T23:26:28;100833.84;;;10.31;31.90
75208;BME280;63795;55.684;37.864;2023-05-09T23:31:28;100840.84;;;10.37;32.96
75208;BME280;63795;55.684;37.864;2023-05-09T23:36:29;100832.34;;;10.37;32.28
75208;BME280;63795;55.684;37.864;2023-05-09T23:41:30;100832.38;;;10.41;32.04
75208;BME280;63795;55.684;37.864;2023-05-09T23:46:41;100837.66;;;10.42;32.75
75208;BME280;63795;55.684;37.864;2023-05-09T23:51:41;100832.16;;;10.26;33.29
75208;BME280;63795;55.684;37.864;2023-05-09T23:56:42;100828.84;;;10.21;32.38
